sensor_id;sensor_type;location;lat;lon;timestamp;P1;durP1;ratioP1;P2;durP2;ratioP2
14209;SDS011;7188;56.070;12.698;2023-02-01T00:00:27;16.10;;;3.07;;
14209;SDS011;7188;56.070;12.698;2023-02-01T00:02:52;20.33;;;2.93;;
14209;SDS011;7188;56.070;12.698;2023-02-01T00:05:18;12.67;;;2.47;;
14209;SDS011;7188;56.070;12.698;2023-02-01T00:07:46;16.80;;;2.43;;
14209;SDS011;7188;56.070;12.698;2023-02-01T00:10:13;15.00;;;2.40;;
14209;SDS011;7188;56.070;12.698;2023-02-01T00:12:39;10.83;;;2.13;;
14209;SDS011;7188;56.070;12.698;2023-02-01T00:15:04;11.10;;;2.70;;
14209;SDS011;7188;56.070;12.698;2023-02-01T00:17:30;20.10;;;2.23;;
14209;SDS011;7188;56.070;12.698;2023-02-01T00:19:59;16.33;;;2.27;;
14209;SDS011;7188;56.070;12.698;2023-02-01T00:22:25;15.93;;;3.10;;
14209;SDS011;7188;56.070;12.698;2023-02-01T00:24:50;14.40;;;3.10;;
14209;SDS011;7188;56.070;12.698;2023-02-01T00:27:16;14.23;;;2.03;;
14209;SDS011;7188;56.070;12.698;2023-02-01T00:29:45;11.47;;;1.97;;
14209;SDS011;7188;56.070;12.698;2023-02-01T00:32:10;22.80;;;3.20;;
14209;SDS011;7188;56.070;12.698;2023-02-01T00:34:36;19.33;;;3.00;;
14209;SDS011;7188;56.070;12.698;2023-02-01T00:37:02;17.80;;;2.93;;
14209;SDS011;7188;56.070;12.698;2023-02-01T00:39:27;14.73;;;2.83;;
14209;SDS011;7188;56.070;12.698;2023-02-01T00:41:53;19.53;;;3.67;;
14209;SDS011;7188;56.070;12.698;2023-02-01T00:44:19;21.13;;;3.80;;
14209;SDS011;7188;56.070;12.698;2023-02-01T00:46:44;19.30;;;2.93;;
14209;SDS011;7188;56.070;12.698;2023-02-01T00:49:10;16.90;;;2.63;;
14209;SDS011;7188;56.070;12.698;2023-02-01T00:51:35;20.43;;;2.73;;
14209;SDS011;7188;56.070;12.698;2023-02-01T00:54:01;19.63;;;2.10;;
14209;SDS011;7188;56.070;12.698;2023-02-01T00:56:28;18.93;;;3.07;;
14209;SDS011;7188;56.070;12.698;2023-02-01T00:58:54;20.60;;;3.03;;
14209;SDS011;7188;56.070;12.698;2023-02-01T01:01:23;24.17;;;3.50;;
14209;SDS011;7188;56.070;12.698;2023-02-01T01:03:52;18.47;;;2.70;;
14209;SDS011;7188;56.070;12.698;2023-02-01T01:06:21;22.53;;;3.50;;
14209;SDS011;7188;56.070;12.698;2023-02-01T01:08:57;12.50;;;3.10;;
14209;SDS011;7188;56.070;12.698;2023-02-01T01:11:28;22.03;;;3.53;;
14209;SDS011;7188;56.070;12.698;2023-02-01T01:13:56;22.83;;;3.27;;
14209;SDS011;7188;56.070;12.698;2023-02-01T01:16:23;22.77;;;3.80;;
14209;SDS011;7188;56.070;12.698;2023-02-01T01:18:51;21.30;;;3.80;;
14209;SDS011;7188;56.070;12.698;2023-02-01T01:21:17;21.50;;;3.40;;
14209;SDS011;7188;56.070;12.698;2023-02-01T01:23:44;21.37;;;3.30;;
14209;SDS011;7188;56.070;12.698;2023-02-01T01:26:15;25.93;;;4.80;;
14209;SDS011;7188;56.070;12.698;2023-02-01T01:28:45;26.17;;;3.87;;
14209;SDS011;7188;56.070;12.698;2023-02-01T01:31:12;16.20;;;3.93;;
14209;SDS011;7188;56.070;12.698;2023-02-01T01:33:39;19.23;;;3.50;;
14209;SDS011;7188;56.070;12.698;2023-02-01T01:36:08;21.53;;;4.50;;
14209;SDS011;7188;56.070;12.698;2023-02-01T01:38:37;18.93;;;3.37;;
14209;SDS011;7188;56.070;12.698;2023-02-01T01:41:04;18.20;;;3.30;;
14209;SDS011;7188;56.070;12.698;2023-02-01T01:43:49;18.20;;;3.03;;
14209;SDS011;7188;56.070;12.698;2023-02-01T01:46:21;17.93;;;3.23;;
14209;SDS011;7188;56.070;12.698;2023-02-01T01:48:50;17.80;;;3.30;;
14209;SDS011;7188;56.070;12.698;2023-02-01T01:51:40;13.83;;;2.77;;
14209;SDS011;7188;56.070;12.698;2023-02-01T01:56:38;16.60;;;2.57;;
14209;SDS011;7188;56.070;12.698;2023-02-01T01:59:06;15.00;;;3.20;;
14209;SDS011;7188;56.070;12.698;2023-02-01T02:01:32;14.70;;;2.40;;
14209;SDS011;7188;56.070;12.698;2023-02-01T02:03:58;16.57;;;3.00;;
14209;SDS011;7188;56.070;12.698;2023-02-01T02:06:31;18.80;;;2.70;;
14209;SDS011;7188;56.070;12.698;2023-02-01T02:09:10;16.37;;;1.90;;
14209;SDS011;7188;56.070;12.698;2023-02-01T02:11:36;8.83;;;2.10;;
14209;SDS011;7188;56.070;12.698;2023-02-01T02:14:02;18.40;;;3.80;;
14209;SDS011;7188;56.070;12.698;2023-02-01T02:36:14;19.43;;;3.60;;
14209;SDS011;7188;56.070;12.698;2023-02-01T02:41:52;24.53;;;3.50;;
14209;SDS011;7188;56.070;12.698;2023-02-01T02:50:51;26.13;;;3.97;;
14209;SDS011;7188;56.070;12.698;2023-02-01T02:54:08;23.30;;;3.33;;
14209;SDS011;7188;56.070;12.698;2023-02-01T02:56:56;25.70;;;4.00;;
14209;SDS011;7188;56.070;12.698;2023-02-01T02:59:43;24.57;;;3.23;;
14209;SDS011;7188;56.070;12.698;2023-02-01T03:02:29;26.53;;;4.10;;
14209;SDS011;7188;56.070;12.698;2023-02-01T03:05:14;22.80;;;3.47;;
14209;SDS011;7188;56.070;12.698;2023-02-01T03:10:11;21.30;;;4.03;;
14209;SDS011;7188;56.070;12.698;2023-02-01T03:12:49;18.83;;;3.70;;
14209;SDS011;7188;56.070;12.698;2023-02-01T03:15:26;20.73;;;4.03;;
14209;SDS011;7188;56.070;12.698;2023-02-01T03:18:02;16.43;;;3.30;;
14209;SDS011;7188;56.070;12.698;2023-02-01T03:20:36;18.33;;;3.00;;
14209;SDS011;7188;56.070;12.698;2023-02-01T03:23:05;22.17;;;3.60;;
14209;SDS011;7188;56.070;12.698;2023-02-01T03:25:32;22.13;;;3.03;;
14209;SDS011;7188;56.070;12.698;2023-02-01T03:28:00;26.53;;;3.33;;
14209;SDS011;7188;56.070;12.698;2023-02-01T03:33:18;20.97;;;3.50;;
14209;SDS011;7188;56.070;12.698;2023-02-01T03:35:53;23.70;;;3.00;;
14209;SDS011;7188;56.070;12.698;2023-02-01T03:38:51;14.43;;;3.27;;
14209;SDS011;7188;56.070;12.698;2023-02-01T03:41:37;21.17;;;3.10;;
14209;SDS011;7188;56.070;12.698;2023-02-01T03:49:33;17.13;;;3.07;;
14209;SDS011;7188;56.070;12.698;2023-02-01T03:52:00;18.30;;;3.07;;
14209;SDS011;7188;56.070;12.698;2023-02-01T03:54:27;22.93;;;3.67;;
14209;SDS011;7188;56.070;12.698;2023-02-01T03:56:55;24.27;;;3.83;;
14209;SDS011;7188;56.070;12.698;2023-02-01T03:59:24;21.03;;;3.83;;
14209;SDS011;7188;56.070;12.698;2023-02-01T04:01:49;18.53;;;3.70;;
14209;SDS011;7188;56.070;12.698;2023-02-01T04:04:16;23.43;;;4.97;;
14209;SDS011;7188;56.070;12.698;2023-02-01T04:06:48;24.07;;;3.70;;
14209;SDS011;7188;56.070;12.698;2023-02-01T04:09:14;16.37;;;3.33;;
14209;SDS011;7188;56.070;12.698;2023-02-01T04:11:40;17.97;;;4.33;;
14209;SDS011;7188;56.070;12.698;2023-02-01T04:14:06;15.93;;;2.77;;
14209;SDS011;7188;56.070;12.698;2023-02-01T04:16:32;21.30;;;3.37;;
14209;SDS011;7188;56.070;12.698;2023-02-01T04:18:58;21.07;;;3.27;;
14209;SDS011;7188;56.070;12.698;2023-02-01T04:21:24;19.60;;;3.17;;
14209;SDS011;7188;56.070;12.698;2023-02-01T04:24:03;18.37;;;3.50;;
14209;SDS011;7188;56.070;12.698;2023-02-01T04:26:28;24.80;;;4.07;;
14209;SDS011;7188;56.070;12.698;2023-02-01T04:28:54;24.97;;;3.80;;
14209;SDS011;7188;56.070;12.698;2023-02-01T04:31:20;18.60;;;3.07;;
14209;SDS011;7188;56.070;12.698;2023-02-01T04:33:50;18.53;;;4.50;;
14209;SDS011;7188;56.070;12.698;2023-02-01T04:36:17;19.33;;;3.53;;
14209;SDS011;7188;56.070;12.698;2023-02-01T04:38:45;23.00;;;4.10;;
14209;SDS011;7188;56.070;12.698;2023-02-01T04:41:11;19.23;;;3.73;;
14209;SDS011;7188;56.070;12.698;2023-02-01T04:43:36;21.83;;;3.43;;
14209;SDS011;7188;56.070;12.698;2023-02-01T04:46:02;18.37;;;4.27;;
14209;SDS011;7188;56.070;12.698;2023-02-01T04:48:28;22.10;;;3.90;;
14209;SDS011;7188;56.070;12.698;2023-02-01T04:50:53;16.30;;;2.93;;
14209;SDS011;7188;56.070;12.698;2023-02-01T04:53:19;16.83;;;2.90;;
14209;SDS011;7188;56.070;12.698;2023-02-01T04:55:45;18.40;;;3.60;;
14209;SDS011;7188;56.070;12.698;2023-02-01T04:58:13;19.67;;;3.67;;
14209;SDS011;7188;56.070;12.698;2023-02-01T05:00:39;21.93;;;3.97;;
14209;SDS011;7188;56.070;12.698;2023-02-01T05:03:04;15.70;;;2.97;;
14209;SDS011;7188;56.070;12.698;2023-02-01T05:05:30;19.87;;;3.20;;
14209;SDS011;7188;56.070;12.698;2023-02-01T05:07:56;19.00;;;2.60;;
14209;SDS011;7188;56.070;12.698;2023-02-01T05:10:21;30.33;;;3.43;;
14209;SDS011;7188;56.070;12.698;2023-02-01T05:12:47;19.53;;;3.27;;
14209;SDS011;7188;56.070;12.698;2023-02-01T05:15:31;18.23;;;3.43;;
14209;SDS011;7188;56.070;12.698;2023-02-01T05:17:57;24.50;;;3.03;;
14209;SDS011;7188;56.070;12.698;2023-02-01T05:20:23;18.70;;;4.00;;
14209;SDS011;7188;56.070;12.698;2023-02-01T05:22:49;16.83;;;2.80;;
14209;SDS011;7188;56.070;12.698;2023-02-01T05:25:18;16.23;;;3.07;;
14209;SDS011;7188;56.070;12.698;2023-02-01T05:27:44;16.37;;;2.40;;
14209;SDS011;7188;56.070;12.698;2023-02-01T05:30:09;18.83;;;2.80;;
14209;SDS011;7188;56.070;12.698;2023-02-01T05:32:35;17.67;;;3.77;;
14209;SDS011;7188;56.070;12.698;2023-02-01T05:35:01;16.63;;;2.87;;
14209;SDS011;7188;56.070;12.698;2023-02-01T05:37:27;23.57;;;3.60;;
14209;SDS011;7188;56.070;12.698;2023-02-01T05:39:52;14.73;;;2.80;;
14209;SDS011;7188;56.070;12.698;2023-02-01T05:42:18;14.30;;;2.97;;
14209;SDS011;7188;56.070;12.698;2023-02-01T05:44:44;13.60;;;2.47;;
14209;SDS011;7188;56.070;12.698;2023-02-01T05:47:09;18.47;;;2.43;;
14209;SDS011;7188;56.070;12.698;2023-02-01T05:49:35;13.90;;;2.17;;
14209;SDS011;7188;56.070;12.698;2023-02-01T05:52:01;13.50;;;2.43;;
14209;SDS011;7188;56.070;12.698;2023-02-01T05:54:27;15.93;;;3.17;;
14209;SDS011;7188;56.070;12.698;2023-02-01T05:56:53;13.27;;;2.47;;
14209;SDS011;7188;56.070;12.698;2023-02-01T05:59:18;17.67;;;3.13;;
14209;SDS011;7188;56.070;12.698;2023-02-01T06:01:44;9.30;;;1.97;;
14209;SDS011;7188;56.070;12.698;2023-02-01T06:04:10;15.03;;;2.57;;
14209;SDS011;7188;56.070;12.698;2023-02-01T06:06:35;14.30;;;2.10;;
14209;SDS011;7188;56.070;12.698;2023-02-01T06:09:02;8.37;;;1.70;;
14209;SDS011;7188;56.070;12.698;2023-02-01T06:11:28;13.53;;;1.97;;
14209;SDS011;7188;56.070;12.698;2023-02-01T06:13:54;11.27;;;2.53;;
14209;SDS011;7188;56.070;12.698;2023-02-01T06:16:20;14.13;;;2.73;;
14209;SDS011;7188;56.070;12.698;2023-02-01T06:18:47;10.73;;;1.73;;
14209;SDS011;7188;56.070;12.698;2023-02-01T06:21:13;17.63;;;2.67;;
14209;SDS011;7188;56.070;12.698;2023-02-01T06:23:40;12.47;;;2.33;;
14209;SDS011;7188;56.070;12.698;2023-02-01T06:26:07;13.60;;;2.43;;
14209;SDS011;7188;56.070;12.698;2023-02-01T06:28:33;11.93;;;2.23;;
14209;SDS011;7188;56.070;12.698;2023-02-01T06:31:03;15.03;;;2.53;;
14209;SDS011;7188;56.070;12.698;2023-02-01T06:33:31;9.97;;;2.50;;
14209;SDS011;7188;56.070;12.698;2023-02-01T06:35:59;13.37;;;2.57;;
14209;SDS011;7188;56.070;12.698;2023-02-01T06:38:27;13.23;;;1.77;;
14209;SDS011;7188;56.070;12.698;2023-02-01T06:40:54;12.63;;;2.73;;
14209;SDS011;7188;56.070;12.698;2023-02-01T06:43:21;14.83;;;2.27;;
14209;SDS011;7188;56.070;12.698;2023-02-01T06:45:48;12.77;;;1.80;;
14209;SDS011;7188;56.070;12.698;2023-02-01T06:48:14;10.60;;;1.83;;
14209;SDS011;7188;56.070;12.698;2023-02-01T06:50:40;11.33;;;1.97;;
14209;SDS011;7188;56.070;12.698;2023-02-01T06:53:05;9.10;;;1.43;;
14209;SDS011;7188;56.070;12.698;2023-02-01T06:55:31;14.87;;;1.53;;
14209;SDS011;7188;56.070;12.698;2023-02-01T06:57:56;9.73;;;1.57;;
14209;SDS011;7188;56.070;12.698;2023-02-01T07:00:22;14.37;;;2.10;;
14209;SDS011;7188;56.070;12.698;2023-02-01T07:02:48;9.20;;;1.70;;
14209;SDS011;7188;56.070;12.698;2023-02-01T07:05:14;8.93;;;1.37;;
14209;SDS011;7188;56.070;12.698;2023-02-01T07:07:40;10.47;;;1.50;;
14209;SDS011;7188;56.070;12.698;2023-02-01T07:10:06;6.97;;;1.30;;
14209;SDS011;7188;56.070;12.698;2023-02-01T07:12:32;8.77;;;1.63;;
14209;SDS011;7188;56.070;12.698;2023-02-01T07:14:57;9.53;;;1.40;;
14209;SDS011;7188;56.070;12.698;2023-02-01T07:17:23;10.03;;;1.97;;
14209;SDS011;7188;56.070;12.698;2023-02-01T07:19:49;15.63;;;1.97;;
14209;SDS011;7188;56.070;12.698;2023-02-01T07:22:17;6.87;;;2.03;;
14209;SDS011;7188;56.070;12.698;2023-02-01T07:24:43;11.40;;;1.63;;
14209;SDS011;7188;56.070;12.698;2023-02-01T07:27:09;8.17;;;2.17;;
14209;SDS011;7188;56.070;12.698;2023-02-01T07:29:34;7.93;;;1.30;;
14209;SDS011;7188;56.070;12.698;2023-02-01T07:32:00;6.17;;;1.10;;
14209;SDS011;7188;56.070;12.698;2023-02-01T07:34:27;9.80;;;1.50;;
14209;SDS011;7188;56.070;12.698;2023-02-01T07:36:58;10.33;;;1.33;;
14209;SDS011;7188;56.070;12.698;2023-02-01T07:39:24;11.67;;;2.37;;
14209;SDS011;7188;56.070;12.698;2023-02-01T07:41:49;10.85;;;2.10;;
14209;SDS011;7188;56.070;12.698;2023-02-01T07:44:15;11.77;;;1.93;;
14209;SDS011;7188;56.070;12.698;2023-02-01T07:46:43;12.30;;;2.00;;
14209;SDS011;7188;56.070;12.698;2023-02-01T07:49:09;11.83;;;2.83;;
14209;SDS011;7188;56.070;12.698;2023-02-01T07:51:35;16.37;;;2.70;;
14209;SDS011;7188;56.070;12.698;2023-02-01T07:54:00;14.00;;;2.10;;
14209;SDS011;7188;56.070;12.698;2023-02-01T07:56:29;8.80;;;1.83;;
14209;SDS011;7188;56.070;12.698;2023-02-01T07:58:55;10.60;;;1.87;;
14209;SDS011;7188;56.070;12.698;2023-02-01T08:01:24;11.40;;;2.43;;
14209;SDS011;7188;56.070;12.698;2023-02-01T08:03:52;12.23;;;1.67;;
14209;SDS011;7188;56.070;12.698;2023-02-01T08:09:47;12.53;;;2.03;;
14209;SDS011;7188;56.070;12.698;2023-02-01T08:12:12;7.80;;;2.33;;
14209;SDS011;7188;56.070;12.698;2023-02-01T08:14:38;11.20;;;1.93;;
14209;SDS011;7188;56.070;12.698;2023-02-01T08:17:05;15.37;;;2.20;;
14209;SDS011;7188;56.070;12.698;2023-02-01T08:19:31;13.60;;;2.37;;
14209;SDS011;7188;56.070;12.698;2023-02-01T08:21:57;10.67;;;2.27;;
14209;SDS011;7188;56.070;12.698;2023-02-01T08:24:24;13.33;;;2.17;;
14209;SDS011;7188;56.070;12.698;2023-02-01T08:26:50;12.70;;;1.67;;
14209;SDS011;7188;56.070;12.698;2023-02-01T08:29:15;12.90;;;1.87;;
14209;SDS011;7188;56.070;12.698;2023-02-01T08:31:47;9.33;;;2.27;;
14209;SDS011;7188;56.070;12.698;2023-02-01T08:34:13;9.27;;;1.93;;
14209;SDS011;7188;56.070;12.698;2023-02-01T08:36:38;10.77;;;1.40;;
14209;SDS011;7188;56.070;12.698;2023-02-01T08:39:05;10.33;;;1.27;;
14209;SDS011;7188;56.070;12.698;2023-02-01T08:41:34;12.50;;;1.67;;
14209;SDS011;7188;56.070;12.698;2023-02-01T08:43:59;13.63;;;1.83;;
14209;SDS011;7188;56.070;12.698;2023-02-01T08:46:25;5.57;;;1.00;;
14209;SDS011;7188;56.070;12.698;2023-02-01T08:48:51;9.43;;;1.53;;
14209;SDS011;7188;56.070;12.698;2023-02-01T08:51:17;10.60;;;2.37;;
14209;SDS011;7188;56.070;12.698;2023-02-01T08:53:46;9.90;;;1.40;;
14209;SDS011;7188;56.070;12.698;2023-02-01T08:56:12;13.30;;;1.70;;
14209;SDS011;7188;56.070;12.698;2023-02-01T08:58:39;7.10;;;1.60;;
14209;SDS011;7188;56.070;12.698;2023-02-01T09:01:06;9.80;;;2.00;;
14209;SDS011;7188;56.070;12.698;2023-02-01T09:03:33;11.87;;;2.63;;
14209;SDS011;7188;56.070;12.698;2023-02-01T09:06:02;8.97;;;1.23;;
14209;SDS011;7188;56.070;12.698;2023-02-01T09:08:32;12.97;;;1.83;;
14209;SDS011;7188;56.070;12.698;2023-02-01T09:11:03;13.80;;;1.57;;
14209;SDS011;7188;56.070;12.698;2023-02-01T09:13:43;10.70;;;1.67;;
14209;SDS011;7188;56.070;12.698;2023-02-01T09:16:09;16.90;;;2.00;;
14209;SDS011;7188;56.070;12.698;2023-02-01T09:18:34;9.27;;;2.00;;
14209;SDS011;7188;56.070;12.698;2023-02-01T09:21:03;9.60;;;1.93;;
14209;SDS011;7188;56.070;12.698;2023-02-01T09:23:31;11.07;;;1.87;;
14209;SDS011;7188;56.070;12.698;2023-02-01T09:26:00;9.87;;;1.57;;
14209;SDS011;7188;56.070;12.698;2023-02-01T09:28:27;13.73;;;2.13;;
14209;SDS011;7188;56.070;12.698;2023-02-01T09:30:56;15.03;;;2.07;;
14209;SDS011;7188;56.070;12.698;2023-02-01T09:33:26;11.20;;;1.93;;
14209;SDS011;7188;56.070;12.698;2023-02-01T09:35:59;8.50;;;1.47;;
14209;SDS011;7188;56.070;12.698;2023-02-01T09:38:26;12.67;;;2.10;;
14209;SDS011;7188;56.070;12.698;2023-02-01T09:40:52;7.97;;;1.60;;
14209;SDS011;7188;56.070;12.698;2023-02-01T09:48:35;14.30;;;1.73;;
14209;SDS011;7188;56.070;12.698;2023-02-01T09:51:04;8.83;;;1.57;;
14209;SDS011;7188;56.070;12.698;2023-02-01T09:53:40;9.17;;;1.70;;
14209;SDS011;7188;56.070;12.698;2023-02-01T09:56:15;13.70;;;2.00;;
14209;SDS011;7188;56.070;12.698;2023-02-01T09:58:52;13.73;;;2.23;;
14209;SDS011;7188;56.070;12.698;2023-02-01T10:01:34;7.50;;;1.13;;
14209;SDS011;7188;56.070;12.698;2023-02-01T10:04:05;7.97;;;1.30;;
14209;SDS011;7188;56.070;12.698;2023-02-01T10:09:39;9.03;;;1.30;;
14209;SDS011;7188;56.070;12.698;2023-02-01T10:26:18;10.60;;;1.60;;
14209;SDS011;7188;56.070;12.698;2023-02-01T10:28:47;8.07;;;1.57;;
14209;SDS011;7188;56.070;12.698;2023-02-01T10:31:15;9.70;;;2.00;;
14209;SDS011;7188;56.070;12.698;2023-02-01T10:33:46;14.93;;;3.20;;
14209;SDS011;7188;56.070;12.698;2023-02-01T10:36:28;16.93;;;2.60;;
14209;SDS011;7188;56.070;12.698;2023-02-01T10:38:58;13.07;;;2.33;;
14209;SDS011;7188;56.070;12.698;2023-02-01T10:41:26;11.03;;;2.27;;
14209;SDS011;7188;56.070;12.698;2023-02-01T10:43:58;12.60;;;2.00;;
14209;SDS011;7188;56.070;12.698;2023-02-01T10:46:25;13.87;;;1.87;;
14209;SDS011;7188;56.070;12.698;2023-02-01T10:48:52;11.10;;;2.07;;
14209;SDS011;7188;56.070;12.698;2023-02-01T10:53:53;12.47;;;2.10;;
14209;SDS011;7188;56.070;12.698;2023-02-01T10:56:27;13.03;;;2.43;;
14209;SDS011;7188;56.070;12.698;2023-02-01T10:59:00;14.30;;;1.87;;
14209;SDS011;7188;56.070;12.698;2023-02-01T11:01:30;13.07;;;2.60;;
14209;SDS011;7188;56.070;12.698;2023-02-01T11:04:03;18.37;;;2.57;;
14209;SDS011;7188;56.070;12.698;2023-02-01T11:06:34;12.20;;;2.77;;
14209;SDS011;7188;56.070;12.698;2023-02-01T11:14:17;12.03;;;1.70;;
14209;SDS011;7188;56.070;12.698;2023-02-01T11:16:49;8.50;;;1.67;;
14209;SDS011;7188;56.070;12.698;2023-02-01T11:19:17;9.93;;;2.20;;
14209;SDS011;7188;56.070;12.698;2023-02-01T11:21:43;9.70;;;1.63;;
14209;SDS011;7188;56.070;12.698;2023-02-01T11:27:01;10.37;;;2.30;;
14209;SDS011;7188;56.070;12.698;2023-02-01T11:29:29;11.83;;;1.90;;
14209;SDS011;7188;56.070;12.698;2023-02-01T11:32:01;9.27;;;1.90;;
14209;SDS011;7188;56.070;12.698;2023-02-01T11:34:31;9.97;;;1.83;;
14209;SDS011;7188;56.070;12.698;2023-02-01T11:37:57;7.63;;;2.20;;
14209;SDS011;7188;56.070;12.698;2023-02-01T11:43:13;9.87;;;1.40;;
14209;SDS011;7188;56.070;12.698;2023-02-01T11:45:55;8.20;;;0.90;;
14209;SDS011;7188;56.070;12.698;2023-02-01T11:48:25;17.20;;;1.90;;
14209;SDS011;7188;56.070;12.698;2023-02-01T12:10:58;13.60;;;1.50;;
14209;SDS011;7188;56.070;12.698;2023-02-01T12:16:47;8.10;;;1.80;;
14209;SDS011;7188;56.070;12.698;2023-02-01T12:35:54;7.93;;;0.93;;
14209;SDS011;7188;56.070;12.698;2023-02-01T12:47:27;2.80;;;0.57;;
14209;SDS011;7188;56.070;12.698;2023-02-01T12:50:00;6.47;;;0.83;;
14209;SDS011;7188;56.070;12.698;2023-02-01T12:55:05;4.63;;;1.20;;
14209;SDS011;7188;56.070;12.698;2023-02-01T12:57:40;5.77;;;1.10;;
14209;SDS011;7188;56.070;12.698;2023-02-01T13:06:41;6.17;;;0.97;;
14209;SDS011;7188;56.070;12.698;2023-02-01T13:09:04;6.10;;;1.03;;
14209;SDS011;7188;56.070;12.698;2023-02-01T13:11:40;6.90;;;1.37;;
14209;SDS011;7188;56.070;12.698;2023-02-01T13:14:53;6.13;;;1.13;;
14209;SDS011;7188;56.070;12.698;2023-02-01T13:22:13;9.00;;;0.90;;
14209;SDS011;7188;56.070;12.698;2023-02-01T13:27:16;10.63;;;0.93;;
14209;SDS011;7188;56.070;12.698;2023-02-01T13:29:55;8.60;;;1.20;;
14209;SDS011;7188;56.070;12.698;2023-02-01T13:40:44;7.30;;;1.13;;
14209;SDS011;7188;56.070;12.698;2023-02-01T13:43:28;9.53;;;1.10;;
14209;SDS011;7188;56.070;12.698;2023-02-01T13:46:04;5.73;;;1.23;;
14209;SDS011;7188;56.070;12.698;2023-02-01T13:48:35;4.70;;;1.27;;
14209;SDS011;7188;56.070;12.698;2023-02-01T13:51:05;9.13;;;1.20;;
14209;SDS011;7188;56.070;12.698;2023-02-01T13:53:35;8.73;;;1.00;;
14209;SDS011;7188;56.070;12.698;2023-02-01T13:56:11;6.33;;;1.40;;
14209;SDS011;7188;56.070;12.698;2023-02-01T13:58:42;12.10;;;1.97;;
14209;SDS011;7188;56.070;12.698;2023-02-01T14:03:48;6.43;;;1.13;;
14209;SDS011;7188;56.070;12.698;2023-02-01T14:16:43;4.77;;;1.03;;
14209;SDS011;7188;56.070;12.698;2023-02-01T14:19:22;5.83;;;1.00;;
14209;SDS011;7188;56.070;12.698;2023-02-01T14:21:53;10.17;;;1.43;;
14209;SDS011;7188;56.070;12.698;2023-02-01T14:24:39;11.37;;;1.47;;
14209;SDS011;7188;56.070;12.698;2023-02-01T14:29:38;11.03;;;1.57;;
14209;SDS011;7188;56.070;12.698;2023-02-01T14:32:15;6.00;;;1.30;;
14209;SDS011;7188;56.070;12.698;2023-02-01T14:47:54;9.43;;;1.40;;
14209;SDS011;7188;56.070;12.698;2023-02-01T15:01:17;12.07;;;2.10;;
14209;SDS011;7188;56.070;12.698;2023-02-01T15:09:07;11.27;;;2.33;;
14209;SDS011;7188;56.070;12.698;2023-02-01T15:11:59;13.83;;;2.60;;
14209;SDS011;7188;56.070;12.698;2023-02-01T15:14:26;12.40;;;2.80;;
14209;SDS011;7188;56.070;12.698;2023-02-01T15:16:53;12.00;;;2.87;;
14209;SDS011;7188;56.070;12.698;2023-02-01T15:19:19;11.97;;;2.13;;
14209;SDS011;7188;56.070;12.698;2023-02-01T15:21:52;13.50;;;2.57;;
14209;SDS011;7188;56.070;12.698;2023-02-01T15:24:24;14.20;;;3.00;;
14209;SDS011;7188;56.070;12.698;2023-02-01T15:26:51;17.07;;;3.10;;
14209;SDS011;7188;56.070;12.698;2023-02-01T15:29:19;19.47;;;3.17;;
14209;SDS011;7188;56.070;12.698;2023-02-01T15:31:47;16.50;;;3.53;;
14209;SDS011;7188;56.070;12.698;2023-02-01T15:34:17;22.97;;;3.97;;
14209;SDS011;7188;56.070;12.698;2023-02-01T15:36:45;17.00;;;3.43;;
14209;SDS011;7188;56.070;12.698;2023-02-01T15:39:18;22.10;;;3.70;;
14209;SDS011;7188;56.070;12.698;2023-02-01T15:41:52;17.60;;;3.50;;
14209;SDS011;7188;56.070;12.698;2023-02-01T15:47:17;20.77;;;3.87;;
14209;SDS011;7188;56.070;12.698;2023-02-01T15:49:52;24.13;;;4.20;;
14209;SDS011;7188;56.070;12.698;2023-02-01T15:52:24;25.13;;;3.20;;
14209;SDS011;7188;56.070;12.698;2023-02-01T15:54:55;17.57;;;3.37;;
14209;SDS011;7188;56.070;12.698;2023-02-01T15:57:28;25.77;;;4.13;;
14209;SDS011;7188;56.070;12.698;2023-02-01T16:00:04;19.20;;;3.67;;
14209;SDS011;7188;56.070;12.698;2023-02-01T16:02:34;21.37;;;2.97;;
14209;SDS011;7188;56.070;12.698;2023-02-01T16:05:03;16.60;;;3.30;;
14209;SDS011;7188;56.070;12.698;2023-02-01T16:07:32;22.83;;;4.07;;
14209;SDS011;7188;56.070;12.698;2023-02-01T16:09:59;29.17;;;4.97;;
14209;SDS011;7188;56.070;12.698;2023-02-01T16:15:03;21.43;;;3.57;;
14209;SDS011;7188;56.070;12.698;2023-02-01T16:17:30;26.30;;;4.50;;
14209;SDS011;7188;56.070;12.698;2023-02-01T16:19:56;21.17;;;3.73;;
14209;SDS011;7188;56.070;12.698;2023-02-01T16:22:22;21.47;;;3.87;;
14209;SDS011;7188;56.070;12.698;2023-02-01T16:24:48;25.93;;;4.30;;
14209;SDS011;7188;56.070;12.698;2023-02-01T16:27:14;28.58;;;5.53;;
14209;SDS011;7188;56.070;12.698;2023-02-01T16:29:40;19.00;;;3.97;;
14209;SDS011;7188;56.070;12.698;2023-02-01T16:32:05;24.70;;;5.17;;
14209;SDS011;7188;56.070;12.698;2023-02-01T16:34:36;23.50;;;5.87;;
14209;SDS011;7188;56.070;12.698;2023-02-01T16:37:02;26.93;;;4.00;;
14209;SDS011;7188;56.070;12.698;2023-02-01T16:39:28;19.63;;;4.30;;
14209;SDS011;7188;56.070;12.698;2023-02-01T16:41:58;29.73;;;4.87;;
14209;SDS011;7188;56.070;12.698;2023-02-01T16:44:23;27.27;;;4.40;;
14209;SDS011;7188;56.070;12.698;2023-02-01T16:46:50;26.33;;;4.33;;
14209;SDS011;7188;56.070;12.698;2023-02-01T16:49:20;24.43;;;3.83;;
14209;SDS011;7188;56.070;12.698;2023-02-01T16:51:48;22.03;;;3.40;;
14209;SDS011;7188;56.070;12.698;2023-02-01T16:54:17;25.20;;;4.17;;
14209;SDS011;7188;56.070;12.698;2023-02-01T16:56:43;21.13;;;3.73;;
14209;SDS011;7188;56.070;12.698;2023-02-01T16:59:10;23.70;;;4.83;;
14209;SDS011;7188;56.070;12.698;2023-02-01T17:01:36;23.10;;;3.80;;
14209;SDS011;7188;56.070;12.698;2023-02-01T17:04:02;19.00;;;4.40;;
14209;SDS011;7188;56.070;12.698;2023-02-01T17:06:28;25.17;;;5.57;;
14209;SDS011;7188;56.070;12.698;2023-02-01T17:08:57;33.53;;;4.70;;
14209;SDS011;7188;56.070;12.698;2023-02-01T17:11:25;26.23;;;5.40;;
14209;SDS011;7188;56.070;12.698;2023-02-01T17:13:51;26.60;;;4.40;;
14209;SDS011;7188;56.070;12.698;2023-02-01T17:18:47;22.70;;;4.13;;
14209;SDS011;7188;56.070;12.698;2023-02-01T17:21:20;28.80;;;6.07;;
14209;SDS011;7188;56.070;12.698;2023-02-01T17:23:46;31.27;;;5.53;;
14209;SDS011;7188;56.070;12.698;2023-02-01T17:26:12;22.57;;;3.97;;
14209;SDS011;7188;56.070;12.698;2023-02-01T17:28:38;31.40;;;5.50;;
14209;SDS011;7188;56.070;12.698;2023-02-01T17:31:03;34.00;;;6.07;;
14209;SDS011;7188;56.070;12.698;2023-02-01T17:33:30;31.57;;;4.73;;
14209;SDS011;7188;56.070;12.698;2023-02-01T17:36:00;32.80;;;5.27;;
14209;SDS011;7188;56.070;12.698;2023-02-01T17:38:27;28.23;;;5.30;;
14209;SDS011;7188;56.070;12.698;2023-02-01T17:40:52;27.80;;;6.00;;
14209;SDS011;7188;56.070;12.698;2023-02-01T17:43:22;28.57;;;5.50;;
14209;SDS011;7188;56.070;12.698;2023-02-01T17:45:51;29.40;;;6.63;;
14209;SDS011;7188;56.070;12.698;2023-02-01T17:48:22;26.20;;;5.77;;
14209;SDS011;7188;56.070;12.698;2023-02-01T17:50:49;31.77;;;6.07;;
14209;SDS011;7188;56.070;12.698;2023-02-01T17:53:18;21.33;;;4.83;;
14209;SDS011;7188;56.070;12.698;2023-02-01T17:55:48;37.20;;;6.60;;
14209;SDS011;7188;56.070;12.698;2023-02-01T17:58:27;32.33;;;6.93;;
14209;SDS011;7188;56.070;12.698;2023-02-01T18:01:00;38.10;;;6.90;;
14209;SDS011;7188;56.070;12.698;2023-02-01T18:03:27;39.70;;;6.03;;
14209;SDS011;7188;56.070;12.698;2023-02-01T18:05:55;29.57;;;6.13;;
14209;SDS011;7188;56.070;12.698;2023-02-01T18:08:24;28.10;;;5.40;;
14209;SDS011;7188;56.070;12.698;2023-02-01T18:10:52;36.67;;;6.47;;
14209;SDS011;7188;56.070;12.698;2023-02-01T18:13:19;32.53;;;6.37;;
14209;SDS011;7188;56.070;12.698;2023-02-01T18:15:45;31.93;;;5.33;;
14209;SDS011;7188;56.070;12.698;2023-02-01T18:18:11;30.80;;;5.33;;